CheckWX is a tool to help pilots better visualize weather data.  It is not intended as a substitute for an official pre-flight weather briefing.

05:12:48 UTC

EETN TAF
Tallinn Airport
Tallinn, Estonia
TAF EETN 162303Z 1700/1724 27010KT CAVOK PROB40 TEMPO 1712/1718 SCT030CB

Jun-17@
00:00 UTC

Jun-17 @ 00:00 UTC

Jun-18@
00:00 UTC

Jun-18 @ 00:00 UTC

TAF EETN 162303Z 1700/1724 27010KT CAVOK
Wind
  • 270° at 10 KTS
Conditions
No significant weather
Cloud Levels
  • No significant clouds

Jun-17@
12:00 UTC

Jun-17 @ 12:00 UTC

Jun-17@
18:00 UTC

Jun-17 @ 18:00 UTC

PROB40 TEMPO 1712/1718 SCT030CB

Temporary - 40% Likelihood

Temporary - 40% Likelihood during this time.

Cloud Levels
  • Scattered at 3,000' AGL